Time;durP1;ratioP1;P1;durP2;ratioP2;P2;SDS_P1;SDS_P2;PMS_P1;PMS_P2;Temp;Humidity;BMP_temperature;BMP_pressure;BME280_temperature;BME280_humidity;BME280_pressure;Samples;Min_cycle;Max_cycle;Signal;HPM_P1;HPM_P2
2023/10/23 00:00:12;;;;;;;7.65;3.83;;;8.60;99.90;;;;;;5094419;28;20511;-77
2023/10/23 00:02:38;;;;;;;7.05;4.20;;;8.60;99.90;;;;;;5110738;28;20051;-78
2023/10/23 00:05:05;;;;;;;7.63;4.00;;;8.60;99.90;;;;;;5075134;28;20123;-79
2023/10/23 00:07:31;;;;;;;7.40;4.10;;;8.60;99.90;;;;;;5073436;28;20127;-79
2023/10/23 00:09:57;;;;;;;7.25;4.93;;;8.50;99.90;;;;;;5091544;28;20595;-78
2023/10/23 00:12:23;;;;;;;8.38;5.22;;;8.50;99.90;;;;;;5108712;28;20506;-79
2023/10/23 00:14:48;;;;;;;6.75;3.83;;;8.60;99.90;;;;;;5101392;28;20449;-78
2023/10/23 00:17:17;;;;;;;7.82;4.38;;;8.50;99.90;;;;;;5111886;28;20044;-78
2023/10/23 00:19:43;;;;;;;10.70;6.05;;;8.50;99.90;;;;;;5065405;28;20040;-79
2023/10/23 00:22:09;;;;;;;7.65;5.10;;;8.50;99.90;;;;;;5091012;28;20051;-78
2023/10/23 00:24:35;;;;;;;7.32;5.20;;;8.50;99.90;;;;;;5089713;28;20060;-79
2023/10/23 00:27:00;;;;;;;9.52;5.70;;;8.50;99.90;;;;;;5105910;28;20044;-78
2023/10/23 00:29:26;;;;;;;9.73;6.18;;;8.40;99.90;;;;;;5111180;28;20040;-79
2023/10/23 00:31:51;;;;;;;8.55;4.70;;;8.50;99.90;;;;;;5096160;28;20086;-79
2023/10/23 00:34:17;;;;;;;8.90;6.00;;;8.40;99.90;;;;;;5090054;28;20143;-78
2023/10/23 00:36:43;;;;;;;9.38;6.15;;;8.40;99.90;;;;;;5093530;28;20568;-79
2023/10/23 00:39:08;;;;;;;8.05;5.28;;;8.40;99.90;;;;;;5091858;28;20534;-78
2023/10/23 00:41:34;;;;;;;11.20;6.75;;;8.40;99.90;;;;;;5080878;28;20052;-79
2023/10/23 00:44:01;;;;;;;11.07;4.60;;;8.40;99.90;;;;;;5079932;28;20055;-79
2023/10/23 00:46:29;;;;;;;10.13;5.68;;;8.40;99.90;;;;;;5091100;28;20052;-78
2023/10/23 00:48:55;;;;;;;9.38;6.28;;;8.50;99.90;;;;;;5091371;28;20184;-79
2023/10/23 00:51:21;;;;;;;8.68;6.47;;;8.30;99.90;;;;;;5073969;28;20040;-78
2023/10/23 00:53:48;;;;;;;10.73;6.88;;;8.30;99.90;;;;;;5089859;28;20063;-78
2023/10/23 00:56:14;;;;;;;9.60;7.00;;;8.30;99.90;;;;;;5083199;28;20405;-79
2023/10/23 00:58:42;;;;;;;10.20;6.00;;;8.30;99.90;;;;;;5095388;28;20145;-79
2023/10/23 01:01:12;;;;;;;10.77;6.55;;;8.30;99.90;;;;;;5092584;28;20957;-78
2023/10/23 01:03:38;;;;;;;11.05;6.45;;;8.30;99.90;;;;;;5091921;28;20050;-78
2023/10/23 01:06:05;;;;;;;9.85;6.53;;;8.30;99.90;;;;;;5096308;28;20040;-79
2023/10/23 01:08:30;;;;;;;9.40;6.00;;;8.40;99.90;;;;;;5095561;28;20423;-79
2023/10/23 01:10:57;;;;;;;11.70;6.50;;;8.30;99.90;;;;;;5105608;28;20127;-79
2023/10/23 01:13:25;;;;;;;10.23;7.30;;;8.30;99.90;;;;;;5094028;28;20394;-78
2023/10/23 01:15:51;;;;;;;14.48;7.18;;;8.20;99.90;;;;;;5095027;28;20059;-78
2023/10/23 01:18:17;;;;;;;8.65;6.43;;;8.30;99.90;;;;;;5086305;28;20058;-78
2023/10/23 01:20:44;;;;;;;9.40;6.07;;;8.20;99.90;;;;;;5075396;28;20450;-79
2023/10/23 01:23:11;;;;;;;10.05;6.35;;;8.20;99.90;;;;;;5092349;28;20052;-79
2023/10/23 01:25:40;;;;;;;8.05;5.07;;;8.20;99.90;;;;;;5096059;28;20093;-78
2023/10/23 01:28:06;;;;;;;9.13;6.55;;;8.20;99.90;;;;;;5115329;27;20083;-79
2023/10/23 01:30:33;;;;;;;9.60;6.70;;;8.20;99.90;;;;;;5097433;28;20070;-78
2023/10/23 01:32:58;;;;;;;11.07;7.30;;;8.30;99.90;;;;;;5097767;28;20108;-78
2023/10/23 01:35:24;;;;;;;8.50;5.75;;;8.20;99.90;;;;;;5077014;28;20483;-78
2023/10/23 01:37:51;;;;;;;8.73;5.93;;;8.20;99.90;;;;;;5092734;28;20055;-79
2023/10/23 01:40:17;;;;;;;11.77;7.47;;;8.30;99.90;;;;;;5092642;28;20088;-79
2023/10/23 01:42:43;;;;;;;9.55;6.70;;;8.10;99.90;;;;;;5093209;28;20463;-78
2023/10/23 01:45:09;;;;;;;13.20;8.38;;;8.10;99.90;;;;;;5093430;28;20127;-77
2023/10/23 01:47:35;;;;;;;10.68;7.72;;;8.10;99.90;;;;;;5093258;28;20427;-77
2023/10/23 01:50:01;;;;;;;11.23;7.50;;;8.10;99.90;;;;;;5094359;28;20044;-77
2023/10/23 01:52:27;;;;;;;10.43;7.18;;;8.10;99.90;;;;;;5099932;28;20051;-78
2023/10/23 01:54:53;;;;;;;10.98;7.50;;;8.10;99.90;;;;;;5092751;28;20051;-78
2023/10/23 01:57:19;;;;;;;10.27;7.15;;;8.20;99.90;;;;;;5093285;28;20043;-77
2023/10/23 01:59:45;;;;;;;11.52;7.10;;;8.10;99.90;;;;;;5093015;28;20055;-77
2023/10/23 02:02:10;;;;;;;10.25;6.72;;;8.00;99.90;;;;;;5093986;28;20040;-78
2023/10/23 02:04:38;;;;;;;10.73;7.15;;;8.20;99.90;;;;;;5092739;28;20055;-78
2023/10/23 02:07:04;;;;;;;11.75;7.15;;;8.00;99.90;;;;;;5094165;28;20052;-77
2023/10/23 02:09:29;;;;;;;11.30;7.72;;;8.00;99.90;;;;;;5091913;28;20044;-78
2023/10/23 02:11:56;;;;;;;12.13;7.97;;;8.00;99.90;;;;;;5091348;28;20500;-77
2023/10/23 02:14:21;;;;;;;10.77;7.80;;;8.00;99.90;;;;;;5092170;28;20403;-78
2023/10/23 02:16:47;;;;;;;10.10;7.28;;;7.90;99.90;;;;;;5093298;28;20040;-77
2023/10/23 02:19:12;;;;;;;11.48;6.10;;;7.90;99.90;;;;;;5093447;28;20036;-78
2023/10/23 02:21:39;;;;;;;8.80;5.72;;;7.90;99.90;;;;;;5093074;28;20044;-77
2023/10/23 02:24:05;;;;;;;8.80;5.22;;;7.90;99.90;;;;;;5089969;28;20143;-78
2023/10/23 02:26:31;;;;;;;9.00;5.88;;;7.90;99.90;;;;;;5093260;28;20052;-78
2023/10/23 02:28:58;;;;;;;8.30;5.47;;;7.90;99.90;;;;;;5093473;28;20055;-77
2023/10/23 02:31:23;;;;;;;10.00;6.88;;;7.90;99.90;;;;;;5093888;28;20044;-78
2023/10/23 02:33:49;;;;;;;9.02;6.22;;;8.00;99.90;;;;;;5093468;28;20073;-78
2023/10/23 02:36:15;;;;;;;12.10;6.95;;;7.90;99.90;;;;;;5093966;28;20181;-78
2023/10/23 02:38:42;;;;;;;8.00;5.30;;;7.90;99.90;;;;;;5091406;28;20488;-78
2023/10/23 02:41:07;;;;;;;9.55;6.40;;;7.80;99.90;;;;;;5092953;28;20123;-77
2023/10/23 02:43:33;;;;;;;19.13;7.82;;;7.80;99.90;;;;;;5074521;28;20562;-78
2023/10/23 02:46:04;;;;;;;11.18;8.05;;;7.80;99.90;;;;;;5098992;28;20050;-78
2023/10/23 02:48:30;;;;;;;9.65;6.95;;;7.70;99.90;;;;;;5094293;28;20055;-77
2023/10/23 02:50:57;;;;;;;10.13;6.10;;;7.90;99.90;;;;;;5092380;28;20055;-77
2023/10/23 02:53:23;;;;;;;12.32;7.30;;;7.80;99.90;;;;;;5076038;28;20032;-78
2023/10/23 02:55:49;;;;;;;8.68;6.38;;;7.80;99.90;;;;;;5096742;28;20044;-78
2023/10/23 02:58:16;;;;;;;9.45;6.28;;;7.80;99.90;;;;;;5091232;28;20036;-78
2023/10/23 03:00:42;;;;;;;11.88;6.97;;;7.80;99.90;;;;;;5092403;28;20048;-78
2023/10/23 03:03:09;;;;;;;12.98;8.00;;;7.80;99.90;;;;;;5092363;28;20121;-77
2023/10/23 03:05:35;;;;;;;11.85;6.45;;;7.80;99.90;;;;;;5087647;28;20059;-77
2023/10/23 03:08:02;;;;;;;10.60;7.05;;;7.70;99.90;;;;;;5084419;28;20396;-77
2023/10/23 03:10:28;;;;;;;11.02;6.53;;;7.70;99.90;;;;;;5091804;28;20480;-77
2023/10/23 03:12:56;;;;;;;10.68;7.20;;;7.70;99.90;;;;;;5092205;28;20083;-78
2023/10/23 03:15:21;;;;;;;10.23;6.85;;;7.70;99.90;;;;;;5094486;28;20396;-77
2023/10/23 03:17:47;;;;;;;9.18;6.53;;;7.70;99.90;;;;;;5093137;28;20095;-78
2023/10/23 03:20:13;;;;;;;11.18;7.68;;;7.70;99.90;;;;;;5094493;28;20043;-77
2023/10/23 03:22:39;;;;;;;9.25;6.55;;;7.70;99.90;;;;;;5092363;28;20056;-78
2023/10/23 03:25:06;;;;;;;11.10;7.13;;;7.70;99.90;;;;;;5093771;28;20373;-78
2023/10/23 03:27:32;;;;;;;8.73;6.28;;;7.70;99.90;;;;;;5092730;28;20055;-78
2023/10/23 03:29:58;;;;;;;9.75;6.53;;;7.70;99.90;;;;;;5082764;28;20035;-77
2023/10/23 03:32:23;;;;;;;8.27;5.82;;;7.60;99.90;;;;;;5106117;28;20052;-78
2023/10/23 03:34:51;;;;;;;10.82;5.90;;;7.60;99.90;;;;;;5098367;28;20048;-78
2023/10/23 03:37:16;;;;;;;9.57;6.97;;;7.60;99.90;;;;;;5101844;28;20498;-77
2023/10/23 03:39:43;;;;;;;8.82;6.57;;;7.70;99.90;;;;;;5091477;28;20133;-78
2023/10/23 03:42:10;;;;;;;9.80;7.20;;;7.80;99.90;;;;;;5074354;28;20186;-78
2023/10/23 03:44:36;;;;;;;10.85;7.68;;;7.80;99.90;;;;;;5092460;28;20447;-78
2023/10/23 03:47:03;;;;;;;9.75;7.13;;;7.60;99.90;;;;;;5091061;28;20145;-77
2023/10/23 03:49:29;;;;;;;11.32;6.00;;;7.60;99.90;;;;;;5101485;28;20054;-77
2023/10/23 03:51:58;;;;;;;11.02;7.32;;;7.60;99.90;;;;;;5100807;28;20047;-77
2023/10/23 03:54:23;;;;;;;10.02;6.88;;;7.50;99.90;;;;;;5070566;28;20052;-77
2023/10/23 03:56:49;;;;;;;10.65;7.72;;;7.60;99.90;;;;;;5089961;28;20127;-78
2023/10/23 03:59:15;;;;;;;12.02;7.75;;;7.50;99.90;;;;;;5103428;28;20075;-78
2023/10/23 04:01:40;;;;;;;8.70;6.40;;;7.80;99.90;;;;;;5090979;28;20110;-78
2023/10/23 04:04:08;;;;;;;9.93;7.38;;;7.50;99.90;;;;;;5096806;28;20036;-78
2023/10/23 04:06:37;;;;;;;10.68;7.65;;;7.50;99.90;;;;;;5104927;28;20056;-77
2023/10/23 04:09:03;;;;;;;12.82;9.45;;;7.50;99.90;;;;;;5085208;28;20044;-78
2023/10/23 04:11:29;;;;;;;14.13;7.28;;;7.40;99.90;;;;;;5076441;28;20063;-78
2023/10/23 04:13:55;;;;;;;12.05;8.73;;;7.50;99.90;;;;;;5089342;28;20036;-78
2023/10/23 04:16:21;;;;;;;12.73;8.40;;;7.50;99.90;;;;;;5091995;28;20051;-77
2023/10/23 04:18:46;;;;;;;13.02;8.70;;;7.50;99.90;;;;;;5092749;28;20051;-78
2023/10/23 04:21:12;;;;;;;12.48;9.05;;;7.40;99.90;;;;;;5090427;28;20090;-77
2023/10/23 04:23:39;;;;;;;12.63;8.55;;;7.50;99.90;;;;;;5089839;28;20052;-77
2023/10/23 04:26:08;;;;;;;12.30;8.23;;;7.50;99.90;;;;;;5094263;28;20143;-78
2023/10/23 04:28:36;;;;;;;12.55;7.25;;;7.40;99.90;;;;;;5108248;28;20501;-77
2023/10/23 04:31:03;;;;;;;13.10;8.68;;;7.40;99.90;;;;;;5097881;28;20081;-77
2023/10/23 04:33:29;;;;;;;14.02;9.18;;;7.40;99.90;;;;;;5090341;28;20119;-77
2023/10/23 04:35:56;;;;;;;13.23;9.10;;;7.40;99.90;;;;;;5093457;28;20551;-77
2023/10/23 04:38:22;;;;;;;13.75;8.63;;;7.40;99.90;;;;;;5077619;28;20510;-77
2023/10/23 04:40:50;;;;;;;12.20;6.95;;;7.30;99.90;;;;;;5094143;28;20857;-76
2023/10/23 04:43:16;;;;;;;11.60;8.07;;;7.40;99.90;;;;;;5094185;28;20186;-78
2023/10/23 04:45:42;;;;;;;13.23;8.38;;;7.40;99.90;;;;;;5084757;28;20047;-77
2023/10/23 04:48:09;;;;;;;12.63;8.85;;;7.30;99.90;;;;;;5114781;28;20102;-78
2023/10/23 04:50:37;;;;;;;11.25;7.53;;;7.30;99.90;;;;;;5101226;28;20052;-77
2023/10/23 04:53:04;;;;;;;11.27;7.45;;;7.30;99.90;;;;;;5101989;28;20040;-77
2023/10/23 04:55:34;;;;;;;12.30;7.40;;;7.30;99.90;;;;;;5092604;28;20044;-78
2023/10/23 04:58:00;;;;;;;14.35;9.43;;;7.30;99.90;;;;;;5078551;28;20043;-77
2023/10/23 05:00:27;;;;;;;10.88;8.32;;;7.30;99.90;;;;;;5095333;28;20048;-78
2023/10/23 05:02:52;;;;;;;10.77;7.72;;;7.30;99.90;;;;;;5102241;28;20059;-78
2023/10/23 05:05:18;;;;;;;12.18;8.18;;;7.30;99.90;;;;;;5105666;28;20051;-77
2023/10/23 05:07:44;;;;;;;13.15;8.45;;;7.30;99.90;;;;;;5103006;28;20048;-78
2023/10/23 05:10:11;;;;;;;10.18;7.05;;;7.30;99.90;;;;;;5106344;28;20044;-78
2023/10/23 05:12:37;;;;;;;10.55;7.47;;;7.30;99.90;;;;;;5076645;28;20503;-77
2023/10/23 05:15:03;;;;;;;9.25;6.60;;;7.50;99.90;;;;;;5093737;28;20416;-77
2023/10/23 05:17:32;;;;;;;8.88;6.57;;;7.30;99.90;;;;;;5095200;28;20475;-77
2023/10/23 05:19:57;;;;;;;10.25;7.85;;;7.40;99.90;;;;;;5090093;28;20127;-77
2023/10/23 05:22:24;;;;;;;13.85;7.97;;;8.30;99.90;;;;;;5093032;28;20059;-80
2023/10/23 05:24:50;;;;;;;11.23;8.45;;;7.30;99.90;;;;;;5092858;28;20078;-81
2023/10/23 05:27:17;;;;;;;13.63;9.88;;;7.50;99.90;;;;;;5093322;28;20044;-78
2023/10/23 05:29:43;;;;;;;14.15;10.20;;;7.30;99.90;;;;;;5093550;28;20091;-77
2023/10/23 05:32:09;;;;;;;11.80;8.15;;;7.30;99.90;;;;;;5093488;28;20075;-77
2023/10/23 05:34:34;;;;;;;11.27;8.45;;;7.30;99.90;;;;;;5093190;28;20051;-78
2023/10/23 05:37:00;;;;;;;11.27;7.80;;;7.30;99.90;;;;;;5093444;28;20047;-78
2023/10/23 05:39:26;;;;;;;11.50;8.30;;;7.30;99.90;;;;;;5086048;28;20439;-78
2023/10/23 05:41:52;;;;;;;11.85;8.55;;;7.30;99.90;;;;;;5092255;28;20059;-77
2023/10/23 05:44:18;;;;;;;12.25;7.80;;;7.20;99.90;;;;;;5094606;28;20048;-77
2023/10/23 05:46:44;;;;;;;11.85;8.07;;;7.20;99.90;;;;;;5093051;28;20043;-78
2023/10/23 05:49:11;;;;;;;11.45;8.18;;;7.20;99.90;;;;;;5092831;28;20036;-79
2023/10/23 05:51:36;;;;;;;9.35;7.63;;;7.20;99.90;;;;;;5084878;28;20635;-79
2023/10/23 05:54:05;;;;;;;13.52;7.15;;;7.20;99.90;;;;;;5098724;28;20095;-77
2023/10/23 05:56:31;;;;;;;13.38;7.85;;;7.20;99.90;;;;;;5093101;28;20059;-78
2023/10/23 05:58:56;;;;;;;10.32;6.95;;;7.20;99.90;;;;;;5093013;28;20052;-78
2023/10/23 06:01:22;;;;;;;12.48;8.25;;;7.20;99.90;;;;;;5093137;28;20506;-78
2023/10/23 06:03:48;;;;;;;11.15;7.43;;;7.20;99.90;;;;;;5095570;28;20089;-78
2023/10/23 06:06:14;;;;;;;12.25;7.97;;;7.10;99.90;;;;;;5093070;28;20055;-79
2023/10/23 06:08:40;;;;;;;10.98;7.10;;;7.10;99.90;;;;;;5094463;28;20051;-77
2023/10/23 06:11:10;;;;;;;10.25;7.82;;;7.20;99.90;;;;;;5088046;28;20409;-78
2023/10/23 06:13:36;;;;;;;11.15;8.48;;;7.10;99.90;;;;;;5089325;28;20117;-79
2023/10/23 06:16:04;;;;;;;10.95;8.30;;;7.10;99.90;;;;;;5094386;28;20114;-78
2023/10/23 06:18:31;;;;;;;12.35;8.52;;;7.10;99.90;;;;;;5103996;28;20498;-79
2023/10/23 06:21:00;;;;;;;14.07;9.52;;;7.10;99.90;;;;;;5109317;28;20056;-78
2023/10/23 06:23:25;;;;;;;12.90;9.05;;;7.10;99.90;;;;;;5090976;28;20509;-80
2023/10/23 06:25:55;;;;;;;12.75;9.48;;;7.00;99.90;;;;;;5092208;28;20087;-78
2023/10/23 06:28:21;;;;;;;13.65;9.23;;;7.00;99.90;;;;;;5111308;28;20040;-77
2023/10/23 06:30:47;;;;;;;11.07;8.18;;;7.00;99.90;;;;;;5099065;28;20044;-78
2023/10/23 06:33:12;;;;;;;13.77;10.57;;;7.20;99.90;;;;;;5092481;28;20105;-78
2023/10/23 06:35:38;;;;;;;20.83;15.38;;;7.00;99.90;;;;;;5092205;28;20046;-78
2023/10/23 06:38:04;;;;;;;11.73;8.73;;;7.00;99.90;;;;;;5076060;28;20052;-78
2023/10/23 06:40:29;;;;;;;20.10;14.82;;;7.20;99.90;;;;;;5091582;28;20051;-78
2023/10/23 06:42:55;;;;;;;16.38;9.77;;;7.00;99.90;;;;;;5091509;28;20419;-80
2023/10/23 06:45:21;;;;;;;12.30;10.32;;;7.00;99.90;;;;;;5092267;28;20052;-78
2023/10/23 06:47:49;;;;;;;16.10;11.48;;;7.00;99.90;;;;;;5092592;28;20530;-80
2023/10/23 06:50:16;;;;;;;13.40;8.93;;;7.00;99.90;;;;;;5092620;28;20495;-80
2023/10/23 06:52:45;;;;;;;13.45;9.57;;;7.00;99.90;;;;;;5093529;28;20078;-80
2023/10/23 06:55:11;;;;;;;13.85;9.57;;;7.00;99.90;;;;;;5089945;28;20040;-79
2023/10/23 06:57:37;;;;;;;14.02;10.32;;;7.00;99.90;;;;;;5090869;28;20123;-78
2023/10/23 07:00:06;;;;;;;14.10;9.75;;;7.00;99.90;;;;;;5092283;28;20122;-79
2023/10/23 07:02:32;;;;;;;13.70;9.82;;;7.00;99.90;;;;;;5092239;28;20044;-79
2023/10/23 07:04:57;;;;;;;13.25;8.93;;;7.00;99.90;;;;;;5093990;28;20052;-78
2023/10/23 07:07:24;;;;;;;13.98;9.25;;;7.00;99.90;;;;;;5092928;28;20534;-79
2023/10/23 07:09:53;;;;;;;13.75;9.82;;;7.00;99.90;;;;;;5092551;28;20048;-79
2023/10/23 07:12:19;;;;;;;10.18;7.40;;;7.00;99.90;;;;;;5091935;28;20062;-80
2023/10/23 07:14:44;;;;;;;10.85;8.63;;;7.00;99.90;;;;;;5088404;28;20045;-79
2023/10/23 07:17:10;;;;;;;13.35;8.63;;;7.00;99.90;;;;;;5086778;28;20070;-78
2023/10/23 07:19:35;;;;;;;9.00;6.80;;;7.00;99.90;;;;;;5091035;28;20051;-78
2023/10/23 07:22:01;;;;;;;14.07;9.07;;;7.00;99.90;;;;;;5091455;28;20092;-78
2023/10/23 07:24:27;;;;;;;18.88;9.70;;;7.00;99.90;;;;;;5094733;28;20140;-77
2023/10/23 07:26:54;;;;;;;10.50;8.13;;;7.10;99.90;;;;;;5090115;28;20156;-78
2023/10/23 07:29:20;;;;;;;13.15;9.20;;;7.00;99.90;;;;;;5091082;28;20143;-77
2023/10/23 07:31:45;;;;;;;10.50;7.32;;;7.20;99.90;;;;;;5091493;28;20518;-78
2023/10/23 07:34:11;;;;;;;10.90;8.43;;;7.10;99.90;;;;;;5091460;28;20036;-78
2023/10/23 07:36:37;;;;;;;11.50;8.02;;;7.10;99.90;;;;;;5092638;28;20069;-79
2023/10/23 07:39:03;;;;;;;10.88;8.05;;;7.10;99.90;;;;;;5092256;28;20044;-77
2023/10/23 07:41:29;;;;;;;14.00;9.80;;;7.10;99.90;;;;;;5082296;28;20439;-78
2023/10/23 07:43:54;;;;;;;9.63;7.13;;;7.10;99.90;;;;;;5082106;28;20097;-77
2023/10/23 07:46:20;;;;;;;14.35;10.18;;;7.10;99.90;;;;;;5091398;28;20083;-77
2023/10/23 07:48:46;;;;;;;15.55;11.98;;;7.20;99.90;;;;;;5092154;28;20044;-77
2023/10/23 07:51:11;;;;;;;19.70;14.55;;;7.20;99.90;;;;;;5091517;28;20048;-76
2023/10/23 07:53:37;;;;;;;24.10;17.95;;;7.20;99.90;;;;;;5093561;28;20048;-77
2023/10/23 07:56:06;;;;;;;18.38;12.77;;;7.20;99.90;;;;;;5092260;28;20084;-76
2023/10/23 07:58:31;;;;;;;22.35;15.70;;;7.20;99.90;;;;;;5073673;28;20052;-77
2023/10/23 08:01:04;;;;;;;12.13;9.68;;;7.20;99.90;;;;;;5090359;28;20144;-76
2023/10/23 08:03:30;;;;;;;20.30;15.68;;;7.20;99.90;;;;;;5093464;28;20143;-79
2023/10/23 08:05:56;;;;;;;15.18;10.75;;;7.40;99.90;;;;;;5090884;28;20086;-80
2023/10/23 08:08:22;;;;;;;19.80;15.93;;;7.20;99.90;;;;;;5083239;28;20507;-80
2023/10/23 08:10:48;;;;;;;21.75;15.57;;;7.30;99.90;;;;;;5083322;28;20040;-80
2023/10/23 08:13:13;;;;;;;25.58;17.15;;;7.30;99.90;;;;;;5085130;28;20408;-81
2023/10/23 08:15:41;;;;;;;24.15;15.23;;;7.30;99.90;;;;;;5088716;28;20079;-81
2023/10/23 08:18:07;;;;;;;27.30;17.80;;;7.40;99.90;;;;;;5094679;28;20044;-79
2023/10/23 08:20:35;;;;;;;24.92;17.60;;;7.50;99.90;;;;;;5095280;28;20145;-81
2023/10/23 08:23:01;;;;;;;29.90;20.73;;;7.60;99.90;;;;;;5093757;28;20056;-83
2023/10/23 08:25:26;;;;;;;26.42;19.58;;;7.50;99.90;;;;;;5094778;28;20058;-81
2023/10/23 08:27:52;;;;;;;25.35;16.63;;;7.60;99.90;;;;;;5094033;28;20059;-80
2023/10/23 08:30:18;;;;;;;24.70;16.48;;;7.70;99.90;;;;;;5095073;28;20089;-80
2023/10/23 08:32:44;;;;;;;32.67;18.50;;;7.70;99.90;;;;;;5094662;28;20525;-81
2023/10/23 08:35:09;;;;;;;28.45;18.38;;;8.00;99.90;;;;;;5095547;28;20123;-80
2023/10/23 08:37:35;;;;;;;26.17;16.95;;;7.80;99.90;;;;;;5094481;28;20052;-81
2023/10/23 08:40:05;;;;;;;24.98;16.67;;;7.80;99.90;;;;;;5094341;28;20511;-80
2023/10/23 08:42:33;;;;;;;21.30;14.75;;;7.90;99.90;;;;;;5093514;28;20048;-81
2023/10/23 08:44:59;;;;;;;24.13;15.25;;;7.90;99.90;;;;;;5094421;28;20047;-80
2023/10/23 08:47:25;;;;;;;22.33;14.65;;;7.90;99.90;;;;;;5094301;28;20103;-82
2023/10/23 08:49:52;;;;;;;22.70;14.43;;;8.00;99.90;;;;;;5094832;28;20040;-81
2023/10/23 08:52:19;;;;;;;23.80;15.15;;;8.00;99.90;;;;;;5095395;28;20051;-82
2023/10/23 08:54:46;;;;;;;25.95;15.52;;;8.10;99.90;;;;;;5094867;28;20048;-81
2023/10/23 08:57:12;;;;;;;23.42;14.73;;;8.10;99.90;;;;;;5094292;28;20480;-81
2023/10/23 08:59:41;;;;;;;22.00;14.60;;;8.10;99.90;;;;;;5094345;28;20066;-81
2023/10/23 09:02:08;;;;;;;20.13;13.95;;;8.20;99.90;;;;;;5094484;28;20044;-81
2023/10/23 09:04:34;;;;;;;20.95;13.82;;;8.30;99.90;;;;;;5096391;28;20080;-81
2023/10/23 09:07:00;;;;;;;25.95;18.40;;;8.30;99.90;;;;;;5091908;28;20083;-80
2023/10/23 09:09:26;;;;;;;23.27;14.48;;;8.60;99.90;;;;;;5086514;28;20059;-82
2023/10/23 09:11:52;;;;;;;28.65;17.92;;;8.40;99.90;;;;;;5075072;28;20568;-81
2023/10/23 09:14:36;;;;;;;25.10;15.68;;;8.50;99.90;;;;;;5076681;28;20041;-80
2023/10/23 09:17:03;;;;;;;23.67;14.73;;;8.60;99.90;;;;;;5095295;28;20076;-81
2023/10/23 09:19:36;;;;;;;21.02;13.85;;;8.60;99.90;;;;;;5095143;28;20090;-81
2023/10/23 09:22:03;;;;;;;25.23;14.63;;;8.70;99.90;;;;;;5093856;28;20384;-81
2023/10/23 09:24:30;;;;;;;21.63;14.13;;;8.80;99.90;;;;;;5094102;28;20063;-81
2023/10/23 09:26:56;;;;;;;19.88;12.60;;;8.90;99.90;;;;;;5093708;28;20048;-81
2023/10/23 09:29:26;;;;;;;19.95;12.80;;;8.90;99.90;;;;;;5094163;28;20550;-81
2023/10/23 09:31:53;;;;;;;19.52;12.38;;;9.20;99.90;;;;;;5093653;28;20123;-81
2023/10/23 09:34:21;;;;;;;17.83;12.05;;;9.30;99.90;;;;;;5094318;28;20044;-81
2023/10/23 09:36:47;;;;;;;16.98;11.85;;;9.50;99.90;;;;;;5092861;28;20127;-81
2023/10/23 09:39:13;;;;;;;21.00;12.32;;;9.70;99.90;;;;;;5094080;28;20044;-81
2023/10/23 09:41:40;;;;;;;16.35;10.15;;;10.00;99.90;;;;;;5082081;28;20134;-81
2023/10/23 09:44:07;;;;;;;13.85;8.82;;;10.20;99.90;;;;;;5073314;28;20048;-81
2023/10/23 09:46:33;;;;;;;14.38;9.88;;;10.40;99.90;;;;;;5093104;28;20130;-81
2023/10/23 09:49:01;;;;;;;13.77;8.82;;;10.60;99.90;;;;;;5094330;28;20515;-81
2023/10/23 09:51:38;;;;;;;14.88;8.50;;;11.00;99.90;;;;;;5077135;28;20087;-81
2023/10/23 09:54:16;;;;;;;12.40;8.43;;;11.00;99.90;;;;;;5074306;28;20091;-81
2023/10/23 09:56:50;;;;;;;14.18;7.53;;;11.20;99.90;;;;;;5074052;28;20090;-80
2023/10/23 09:59:42;;;;;;;14.40;9.07;;;11.40;99.90;;;;;;5074588;28;20131;-81
2023/10/23 10:02:09;;;;;;;14.93;9.80;;;11.50;99.90;;;;;;5074353;28;20060;-79
2023/10/23 10:04:44;;;;;;;13.60;10.52;;;11.70;99.90;;;;;;5087728;28;20040;-82
2023/10/23 10:07:27;;;;;;;14.98;10.25;;;11.80;99.90;;;;;;5081903;28;20046;-81
2023/10/23 10:09:54;;;;;;;11.70;9.00;;;12.00;99.90;;;;;;5079186;28;20066;-77
2023/10/23 10:12:21;;;;;;;14.18;9.02;;;12.10;99.90;;;;;;5094413;28;20055;-79
2023/10/23 10:14:47;;;;;;;11.13;8.68;;;12.10;99.90;;;;;;5093553;28;20040;-78
2023/10/23 10:17:19;;;;;;;14.45;8.52;;;12.20;99.90;;;;;;5091756;28;20052;-78
2023/10/23 10:19:46;;;;;;;13.73;9.32;;;12.20;99.90;;;;;;5093759;28;20119;-78
2023/10/23 10:22:20;;;;;;;12.77;9.73;;;12.30;99.90;;;;;;5092338;28;20051;-79
2023/10/23 10:24:46;;;;;;;19.45;10.10;;;12.30;99.90;;;;;;5086163;28;20445;-78
2023/10/23 10:27:13;;;;;;;13.65;9.70;;;12.50;99.90;;;;;;5093398;28;20043;-79
2023/10/23 10:29:39;;;;;;;15.23;8.77;;;12.60;99.90;;;;;;5093528;28;20040;-78
2023/10/23 10:32:06;;;;;;;12.02;7.88;;;12.70;99.90;;;;;;5093401;28;20040;-79
2023/10/23 10:34:50;;;;;;;14.30;8.27;;;12.70;99.90;;;;;;5093460;28;20048;-79
2023/10/23 10:37:16;;;;;;;13.18;9.20;;;12.80;99.90;;;;;;5093153;28;20095;-79
2023/10/23 10:39:50;;;;;;;12.38;8.23;;;12.90;99.90;;;;;;5093462;28;20086;-79
2023/10/23 10:42:20;;;;;;;11.30;7.97;;;13.00;99.90;;;;;;5091565;28;20423;-79
2023/10/23 10:45:17;;;;;;;9.77;7.85;;;13.10;99.90;;;;;;5092126;28;20043;-78
2023/10/23 10:47:48;;;;;;;10.23;7.32;;;13.10;99.90;;;;;;5092455;28;20046;-78
2023/10/23 10:50:30;;;;;;;13.10;7.80;;;13.20;99.90;;;;;;5092815;28;20048;-80
2023/10/23 10:53:03;;;;;;;10.10;7.60;;;13.20;99.90;;;;;;5099801;28;20403;-78
2023/10/23 10:55:29;;;;;;;11.63;7.28;;;13.30;99.90;;;;;;5089466;28;20083;-80
2023/10/23 10:57:56;;;;;;;11.77;7.60;;;13.40;99.90;;;;;;5095656;28;20082;-79
2023/10/23 11:00:24;;;;;;;13.00;7.90;;;13.40;99.90;;;;;;5088031;28;20087;-78
2023/10/23 11:02:50;;;;;;;11.50;7.35;;;13.40;99.90;;;;;;5086706;28;20511;-79
2023/10/23 11:05:16;;;;;;;11.07;7.28;;;13.50;99.90;;;;;;5093339;28;20040;-81
2023/10/23 11:07:45;;;;;;;10.25;7.90;;;13.50;99.90;;;;;;5092380;28;20052;-79
2023/10/23 11:10:12;;;;;;;10.98;7.50;;;13.50;99.90;;;;;;5093609;28;20126;-81
2023/10/23 11:12:38;;;;;;;12.25;8.15;;;13.60;99.90;;;;;;5093571;28;20047;-79
2023/10/23 11:15:05;;;;;;;12.10;8.13;;;13.60;99.90;;;;;;5092648;28;20040;-82
2023/10/23 11:17:31;;;;;;;14.80;9.10;;;13.70;99.90;;;;;;5092916;28;20055;-81
2023/10/23 11:19:57;;;;;;;11.38;8.98;;;13.80;99.90;;;;;;5093501;28;20048;-79
2023/10/23 11:22:23;;;;;;;11.38;9.07;;;13.80;99.90;;;;;;5093319;28;20399;-79
2023/10/23 11:24:49;;;;;;;13.30;10.07;;;13.90;99.90;;;;;;5092726;28;20095;-82
2023/10/23 11:27:15;;;;;;;16.45;10.80;;;14.00;99.90;;;;;;5092294;28;20177;-81
2023/10/23 11:29:43;;;;;;;14.43;11.30;;;14.00;99.90;;;;;;5092913;28;20040;-81
2023/10/23 11:32:11;;;;;;;14.95;10.77;;;14.10;99.90;;;;;;5093319;28;20052;-82
2023/10/23 11:34:38;;;;;;;15.68;11.10;;;14.10;99.90;;;;;;5092991;28;20485;-81
2023/10/23 11:37:05;;;;;;;13.65;11.32;;;14.20;99.90;;;;;;5092808;28;20375;-80
2023/10/23 11:39:32;;;;;;;13.20;10.98;;;14.20;99.90;;;;;;5093016;28;20044;-81
2023/10/23 11:41:58;;;;;;;14.70;10.30;;;14.30;99.90;;;;;;5091024;28;20043;-79
2023/10/23 11:44:26;;;;;;;14.18;9.48;;;14.20;99.90;;;;;;5092178;28;20066;-81
2023/10/23 11:46:56;;;;;;;13.68;10.15;;;14.10;99.90;;;;;;5092621;28;20127;-79
2023/10/23 11:49:24;;;;;;;16.13;10.73;;;14.10;99.90;;;;;;5091787;28;20097;-79
2023/10/23 11:51:55;;;;;;;16.13;10.95;;;14.10;99.90;;;;;;5094959;28;20556;-79
2023/10/23 11:54:23;;;;;;;14.10;9.23;;;14.10;99.90;;;;;;5113437;28;20104;-78
2023/10/23 11:56:48;;;;;;;13.60;9.45;;;14.00;99.90;;;;;;5094391;28;20044;-79
2023/10/23 11:59:18;;;;;;;12.90;10.10;;;13.90;99.90;;;;;;5084018;28;20040;-80
2023/10/23 12:01:49;;;;;;;12.55;9.18;;;13.80;99.90;;;;;;5087465;28;20048;-78
2023/10/23 12:04:15;;;;;;;12.80;9.63;;;13.80;99.90;;;;;;5094233;28;20131;-80
2023/10/23 12:06:42;;;;;;;11.85;9.15;;;13.80;99.90;;;;;;5091999;28;20071;-80
2023/10/23 12:09:10;;;;;;;12.50;9.00;;;13.80;99.90;;;;;;5092110;28;20048;-80
2023/10/23 12:11:36;;;;;;;11.55;8.98;;;13.70;99.90;;;;;;5092362;28;20048;-80
2023/10/23 12:14:03;;;;;;;11.73;8.65;;;13.60;99.90;;;;;;5092124;28;20105;-81
2023/10/23 12:16:32;;;;;;;12.13;8.77;;;13.60;99.90;;;;;;5091246;28;20040;-79
2023/10/23 12:18:59;;;;;;;11.48;8.77;;;13.50;99.90;;;;;;5092547;28;20377;-79
2023/10/23 12:21:25;;;;;;;12.48;8.63;;;13.40;99.90;;;;;;5092697;28;20427;-80
2023/10/23 12:23:51;;;;;;;10.18;7.95;;;13.40;99.90;;;;;;5092059;28;20055;-78
2023/10/23 12:26:21;;;;;;;10.88;8.73;;;13.30;99.90;;;;;;5092444;28;20080;-80
2023/10/23 12:28:46;;;;;;;12.20;8.70;;;13.20;99.90;;;;;;5092299;28;20044;-80
2023/10/23 12:31:13;;;;;;;13.75;9.60;;;13.10;99.90;;;;;;5091920;28;20548;-80
2023/10/23 12:33:39;;;;;;;12.40;9.52;;;13.10;99.90;;;;;;5091144;28;20044;-80
2023/10/23 12:36:05;;;;;;;12.52;9.30;;;13.00;99.90;;;;;;5091748;28;20093;-79
2023/10/23 12:38:31;;;;;;;11.65;8.25;;;13.00;99.90;;;;;;5091348;28;20151;-79
2023/10/23 12:41:00;;;;;;;11.13;8.38;;;13.00;99.90;;;;;;5082485;28;20051;-80